Woodbury, Connecticut
Current Conditions -  °F | °C
As of 4:50 PM on Monday 20 Oct 2014 (Local Time) from KOXC Reporting Station
Overcast Overcast  
Wind Chill: 12°   Ceiling: 15000
Heat Index: 12°   Visibility: 10mi
Dew Point:   Wind: 8mph
Humidity: 51%   Direction: 210°SSW
Pressure: 29.97"   Gusts: NA
Location:  41.54°N, 73.21°W
Report Text: KOXC 202050Z 21007KT 10SM BKN150 OVC250 12/02 A2997
Loading
Personal Weather Stations






























Interactive Weather Map
Tropical Storm Tracking
New forecast layout! Learn more

10-Day Weather Forecast

Advertisements
Track Severe Weather on mobile